createdAt,value
2022-10-03T00:02:00.188Z,11.70
2022-10-03T00:04:47.624Z,11.60
2022-10-03T00:08:01.869Z,11.60
2022-10-03T00:10:49.906Z,11.60
2022-10-03T00:13:26.799Z,11.60
2022-10-03T00:16:18.850Z,11.60
2022-10-03T00:19:23.380Z,11.50
2022-10-03T00:21:56.683Z,11.50
2022-10-03T00:24:59.549Z,11.50
2022-10-03T00:27:40.611Z,11.50
2022-10-03T00:30:16.581Z,11.50
2022-10-03T00:33:15.114Z,11.50
2022-10-03T00:35:59.107Z,11.50
2022-10-03T00:38:48.290Z,11.50
2022-10-03T00:41:49.593Z,11.50
2022-10-03T00:44:38.083Z,11.50
2022-10-03T00:47:41.868Z,11.40
2022-10-03T00:50:33.660Z,11.40
2022-10-03T00:53:13.117Z,11.40
2022-10-03T00:56:04.506Z,11.40
2022-10-03T00:58:40.347Z,11.30
2022-10-03T01:01:34.205Z,11.30
2022-10-03T01:04:21.101Z,11.30
2022-10-03T01:07:17.618Z,11.30
2022-10-03T01:10:22.307Z,11.20
2022-10-03T01:12:54.751Z,11.20
2022-10-03T01:15:27.519Z,11.20
2022-10-03T01:18:00.355Z,11.20
2022-10-03T01:20:39.513Z,11.20
2022-10-03T01:23:31.107Z,11.20
2022-10-03T01:26:26.647Z,11.20
2022-10-03T01:29:29.706Z,11.20
2022-10-03T01:32:02.500Z,11.20
2022-10-03T01:34:42.435Z,11.20
2022-10-03T01:37:49.360Z,11.20
2022-10-03T01:40:51.625Z,11.20
2022-10-03T01:43:42.124Z,11.20
2022-10-03T01:46:15.372Z,11.10
2022-10-03T01:49:29.223Z,11.00
2022-10-03T01:52:20.255Z,11.00
2022-10-03T01:55:00.567Z,11.00
2022-10-03T01:57:42.295Z,11.00
2022-10-03T02:00:17.695Z,11.00
2022-10-03T02:03:10.091Z,11.00
2022-10-03T02:06:14.044Z,11.00
2022-10-03T02:08:41.227Z,11.00
2022-10-03T02:11:10.602Z,11.00
2022-10-03T02:14:07.288Z,11.00
2022-10-03T02:16:46.451Z,11.00
2022-10-03T02:19:29.740Z,11.10
2022-10-03T02:21:58.954Z,11.00
2022-10-03T02:24:31.288Z,11.00
2022-10-03T02:27:27.509Z,11.00
2022-10-03T02:30:41.442Z,11.00
2022-10-03T02:33:41.053Z,11.10
2022-10-03T02:36:49.227Z,11.10
2022-10-03T02:39:31.608Z,11.10
2022-10-03T02:42:25.185Z,11.10
2022-10-03T02:44:57.904Z,11.10
2022-10-03T02:47:24.538Z,11.10
2022-10-03T02:50:23.079Z,11.10
2022-10-03T02:53:01.353Z,11.10
2022-10-03T02:55:49.352Z,11.10
2022-10-03T02:59:08.971Z,11.20
2022-10-03T03:01:47.025Z,11.20
2022-10-03T03:04:28.618Z,11.20
2022-10-03T03:07:13.920Z,11.20
2022-10-03T03:09:58.807Z,11.20
2022-10-03T03:13:04.408Z,11.20
2022-10-03T03:15:57.994Z,11.20
2022-10-03T03:19:00.247Z,11.20
2022-10-03T03:21:35.055Z,11.20
2022-10-03T03:24:38.594Z,11.20
2022-10-03T03:27:29.885Z,11.20
2022-10-03T03:30:05.887Z,11.20
2022-10-03T03:33:07.516Z,11.20
2022-10-03T03:35:53.875Z,11.10
2022-10-03T03:38:31.534Z,11.10
2022-10-03T03:41:14.195Z,11.20
2022-10-03T03:44:06.448Z,11.20
2022-10-03T03:46:39.000Z,11.20
2022-10-03T03:49:43.287Z,11.20
2022-10-03T03:52:32.211Z,11.20
2022-10-03T03:55:27.682Z,11.20
2022-10-03T03:58:05.674Z,11.20
2022-10-03T04:00:55.384Z,11.20
2022-10-03T04:03:32.707Z,11.20
2022-10-03T04:06:26.175Z,11.20
2022-10-03T04:09:15.643Z,11.20
2022-10-03T04:12:10.133Z,11.20
2022-10-03T04:15:02.766Z,11.20
2022-10-03T04:18:15.422Z,11.20
2022-10-03T04:21:01.718Z,11.20
2022-10-03T04:24:08.704Z,11.30
2022-10-03T04:27:22.486Z,11.30
2022-10-03T04:30:10.366Z,11.20
2022-10-03T04:32:58.502Z,11.20
2022-10-03T04:35:45.509Z,11.20
2022-10-03T04:38:16.041Z,11.30
2022-10-03T04:41:11.556Z,11.20
2022-10-03T04:43:52.408Z,11.30
2022-10-03T04:46:43.318Z,11.20
2022-10-03T04:49:28.986Z,11.20
2022-10-03T04:52:18.337Z,11.20
2022-10-03T04:55:19.671Z,11.20
2022-10-03T04:58:23.508Z,11.20
2022-10-03T05:01:20.659Z,11.20
2022-10-03T05:03:54.329Z,11.20
2022-10-03T05:06:53.603Z,11.20
2022-10-03T05:09:23.629Z,11.20
2022-10-03T05:12:06.231Z,11.20
2022-10-03T05:14:49.770Z,11.20
2022-10-03T05:17:24.675Z,11.20
2022-10-03T05:20:13.786Z,11.10
2022-10-03T05:23:25.781Z,11.20
2022-10-03T05:26:43.092Z,11.20
2022-10-03T05:29:03.904Z,11.20
2022-10-03T05:31:49.199Z,11.20
2022-10-03T05:34:41.420Z,11.20
2022-10-03T05:37:29.895Z,11.20
2022-10-03T05:40:00.079Z,11.20
2022-10-03T05:42:56.065Z,11.20
2022-10-03T05:45:32.286Z,11.20
2022-10-03T05:48:13.980Z,11.20
2022-10-03T05:51:13.430Z,11.20
2022-10-03T05:54:25.049Z,11.20
2022-10-03T05:57:16.789Z,11.20
2022-10-03T06:00:01.241Z,11.20
2022-10-03T06:03:01.398Z,11.20
2022-10-03T06:05:56.638Z,11.20
2022-10-03T06:08:40.900Z,11.20
2022-10-03T06:11:07.495Z,11.30
2022-10-03T06:14:09.218Z,11.30
2022-10-03T06:16:48.539Z,11.30
2022-10-03T06:19:49.753Z,11.30
2022-10-03T06:22:51.117Z,11.40
2022-10-03T06:25:39.309Z,11.40
2022-10-03T06:28:24.907Z,11.40
2022-10-03T06:31:09.710Z,11.40
2022-10-03T06:33:45.458Z,11.40
2022-10-03T06:36:40.127Z,11.50
2022-10-03T06:39:34.363Z,11.50
2022-10-03T06:42:38.799Z,11.50
2022-10-03T06:45:20.947Z,11.60
2022-10-03T06:48:09.980Z,11.60
2022-10-03T06:50:41.107Z,11.60
2022-10-03T06:53:26.345Z,11.60
2022-10-03T06:56:27.900Z,11.70
2022-10-03T06:59:06.123Z,11.70
2022-10-03T07:02:16.319Z,11.80
2022-10-03T07:04:58.336Z,11.80
2022-10-03T07:07:39.207Z,11.80
2022-10-03T07:10:26.668Z,11.80
2022-10-03T07:13:02.635Z,11.90
2022-10-03T07:16:21.055Z,11.90
2022-10-03T07:19:01.632Z,12.00
2022-10-03T07:21:28.377Z,12.10
2022-10-03T07:24:05.187Z,12.10
2022-10-03T07:26:31.770Z,12.10
2022-10-03T07:29:35.643Z,12.10
2022-10-03T07:32:20.832Z,12.20
2022-10-03T07:35:54.606Z,12.20
2022-10-03T07:39:02.849Z,12.20
2022-10-03T07:41:41.743Z,12.30
2022-10-03T07:44:45.833Z,12.30
2022-10-03T07:47:39.873Z,12.40
2022-10-03T07:50:31.145Z,12.40
2022-10-03T07:53:12.511Z,12.40
2022-10-03T07:55:39.078Z,12.50
2022-10-03T07:58:26.174Z,12.50
2022-10-03T08:00:58.563Z,12.50
2022-10-03T08:04:06.026Z,12.60
2022-10-03T08:06:45.397Z,12.60
2022-10-03T08:09:46.815Z,12.70
2022-10-03T08:12:40.391Z,12.70
2022-10-03T08:15:11.451Z,12.70
2022-10-03T08:17:38.091Z,12.80
2022-10-03T08:20:16.916Z,12.80
2022-10-03T08:23:08.544Z,12.80
2022-10-03T08:25:53.628Z,12.80
2022-10-03T08:28:34.121Z,12.90
2022-10-03T08:31:25.364Z,12.90
2022-10-03T08:34:19.833Z,13.00
2022-10-03T08:37:26.280Z,13.00
2022-10-03T08:40:40.218Z,13.00
2022-10-03T08:43:15.929Z,13.00
2022-10-03T08:46:25.492Z,13.10
2022-10-03T08:49:18.415Z,13.10
2022-10-03T08:51:53.155Z,13.20
2022-10-03T08:54:22.759Z,13.10
2022-10-03T08:57:06.187Z,13.20
2022-10-03T09:00:10.104Z,13.20
2022-10-03T09:03:13.704Z,13.30
2022-10-03T09:05:59.786Z,13.30
2022-10-03T09:08:29.111Z,13.40
2022-10-03T09:11:01.544Z,13.50
2022-10-03T09:13:51.180Z,13.60
2022-10-03T09:16:35.326Z,13.60
2022-10-03T09:19:16.753Z,13.60
2022-10-03T09:22:31.827Z,13.70
2022-10-03T09:25:20.104Z,13.80
2022-10-03T09:27:55.941Z,13.80
2022-10-03T09:30:43.953Z,13.80
2022-10-03T09:33:29.375Z,13.80
2022-10-03T09:36:53.766Z,13.80
2022-10-03T09:39:41.806Z,13.80
2022-10-03T09:42:20.276Z,13.80
2022-10-03T09:45:24.376Z,13.90
2022-10-03T09:48:32.720Z,14.00
2022-10-03T09:51:09.305Z,14.00
2022-10-03T09:53:48.776Z,14.10
2022-10-03T09:56:39.711Z,14.20
2022-10-03T09:59:43.732Z,14.30
2022-10-03T10:02:32.020Z,14.30
2022-10-03T10:05:25.693Z,14.40
2022-10-03T10:08:28.491Z,14.50
2022-10-03T10:11:01.331Z,14.70
2022-10-03T10:13:36.248Z,14.80
2022-10-03T10:16:50.127Z,14.90
2022-10-03T10:19:44.337Z,15.10
2022-10-03T10:22:32.164Z,15.00
2022-10-03T10:25:01.971Z,15.00
2022-10-03T10:28:26.076Z,14.90
2022-10-03T10:31:22.628Z,14.90
2022-10-03T10:34:10.880Z,14.90
2022-10-03T10:36:59.309Z,14.80
2022-10-03T10:39:46.899Z,14.70
2022-10-03T10:42:45.151Z,14.70
2022-10-03T10:45:39.345Z,14.70
2022-10-03T10:48:16.875Z,14.60
2022-10-03T10:50:52.591Z,14.90
2022-10-03T10:53:50.201Z,15.30
2022-10-03T10:56:36.868Z,15.60
2022-10-03T10:59:53.975Z,15.90
2022-10-03T11:02:35.924Z,16.20
2022-10-03T11:05:36.912Z,16.30
2022-10-03T11:08:34.829Z,16.30
2022-10-03T11:11:29.030Z,16.20
2022-10-03T11:14:18.796Z,16.30
2022-10-03T11:17:38.999Z,16.40
2022-10-03T11:20:32.632Z,16.50
2022-10-03T11:23:34.023Z,16.50
2022-10-03T11:26:22.393Z,16.70
2022-10-03T11:29:27.306Z,17.00
2022-10-03T11:32:32.360Z,17.10
2022-10-03T11:35:29.101Z,17.20
2022-10-03T11:38:04.943Z,17.20
2022-10-03T11:40:42.000Z,17.20
2022-10-03T11:43:53.003Z,17.30
2022-10-03T11:46:41.157Z,17.20
2022-10-03T11:49:28.432Z,16.90
2022-10-03T11:52:27.861Z,16.80
2022-10-03T11:55:25.474Z,16.70
2022-10-03T11:58:03.109Z,16.50
2022-10-03T12:00:34.548Z,16.10
2022-10-03T12:03:17.385Z,15.70
2022-10-03T12:05:49.946Z,15.50
2022-10-03T12:08:51.026Z,15.50
2022-10-03T12:11:38.645Z,15.80
2022-10-03T12:14:31.040Z,16.10
2022-10-03T12:17:17.858Z,16.40
2022-10-03T12:20:32.184Z,16.60
2022-10-03T12:22:58.813Z,16.90
2022-10-03T12:25:30.173Z,16.80
2022-10-03T12:28:42.262Z,16.60
2022-10-03T12:31:31.088Z,16.10
2022-10-03T12:34:03.548Z,15.90
2022-10-03T12:36:43.524Z,15.70
2022-10-03T12:39:37.870Z,15.50
2022-10-03T12:42:05.116Z,15.30
2022-10-03T12:44:34.583Z,15.40
2022-10-03T12:47:43.852Z,15.40
2022-10-03T12:50:27.999Z,15.70
2022-10-03T12:53:23.898Z,16.00
2022-10-03T12:56:01.888Z,16.30
2022-10-03T12:59:04.702Z,16.60
2022-10-03T13:02:16.434Z,16.60
2022-10-03T13:05:11.870Z,16.60
2022-10-03T13:08:03.328Z,16.30
2022-10-03T13:10:43.548Z,16.10
2022-10-03T13:13:23.033Z,15.90
2022-10-03T13:16:05.924Z,15.70
2022-10-03T13:18:48.010Z,15.50
2022-10-03T13:21:46.009Z,15.40
2022-10-03T13:24:40.027Z,15.30
2022-10-03T13:27:32.289Z,15.30
2022-10-03T13:30:06.387Z,15.20
2022-10-03T13:32:37.787Z,15.10
2022-10-03T13:35:45.105Z,15.20
2022-10-03T13:38:31.813Z,15.20
2022-10-03T13:41:07.417Z,15.10
2022-10-03T13:43:38.529Z,15.10
2022-10-03T13:46:26.816Z,15.10
2022-10-03T13:49:02.174Z,15.20
2022-10-03T13:51:39.831Z,15.50
2022-10-03T13:54:22.035Z,15.70
2022-10-03T13:56:59.730Z,15.70
2022-10-03T13:59:50.880Z,15.80
2022-10-03T14:02:44.842Z,15.80
2022-10-03T14:05:37.208Z,15.70
2022-10-03T14:08:30.715Z,15.50
2022-10-03T14:11:43.673Z,15.30
2022-10-03T14:14:13.951Z,15.20
2022-10-03T14:16:42.747Z,15.10
2022-10-03T14:19:39.189Z,15.00
2022-10-03T14:22:11.262Z,14.90
2022-10-03T14:25:03.639Z,15.00
2022-10-03T14:27:52.780Z,15.10
2022-10-03T14:31:05.104Z,15.10
2022-10-03T14:33:56.444Z,15.10
2022-10-03T14:36:47.297Z,15.20
2022-10-03T14:39:36.357Z,15.10
2022-10-03T14:42:18.979Z,15.20
2022-10-03T14:44:54.309Z,15.20
2022-10-03T14:47:22.140Z,15.10
2022-10-03T14:49:59.175Z,15.10
2022-10-03T14:52:44.444Z,15.10
2022-10-03T14:55:18.953Z,15.10
2022-10-03T14:58:09.691Z,14.90
2022-10-03T15:00:43.657Z,14.90
2022-10-03T15:03:38.082Z,14.80
2022-10-03T15:06:11.030Z,14.70
2022-10-03T15:08:53.994Z,14.70
2022-10-03T15:11:27.331Z,14.60
2022-10-03T15:14:02.526Z,14.60
2022-10-03T15:16:34.520Z,14.50
2022-10-03T15:19:17.776Z,14.50
2022-10-03T15:21:47.438Z,14.60
2022-10-03T15:24:28.452Z,14.60
2022-10-03T15:27:01.617Z,14.60
2022-10-03T15:29:30.884Z,14.60
2022-10-03T15:31:58.736Z,14.60
2022-10-03T15:34:33.412Z,14.50
2022-10-03T15:37:10.899Z,14.50
2022-10-03T15:39:43.964Z,14.40
2022-10-03T15:42:10.635Z,14.40
2022-10-03T15:45:03.825Z,14.30
2022-10-03T15:47:34.809Z,14.30
2022-10-03T15:50:13.238Z,14.30
2022-10-03T15:53:12.353Z,14.20
2022-10-03T15:55:54.584Z,14.10
2022-10-03T15:58:36.196Z,14.00
2022-10-03T16:01:20.724Z,13.90
2022-10-03T16:03:50.316Z,13.80
2022-10-03T16:06:39.791Z,13.70
2022-10-03T16:09:17.777Z,13.70
2022-10-03T16:11:58.620Z,13.60
2022-10-03T16:14:35.744Z,13.50
2022-10-03T16:17:15.801Z,13.40
2022-10-03T16:20:05.854Z,13.40
2022-10-03T16:22:44.794Z,13.30
2022-10-03T16:25:48.358Z,13.20
2022-10-03T16:28:20.220Z,13.20
2022-10-03T16:30:52.481Z,13.10
2022-10-03T16:33:27.486Z,13.10
2022-10-03T16:35:58.149Z,13.00
2022-10-03T16:38:27.603Z,13.00
2022-10-03T16:41:01.953Z,13.00
2022-10-03T16:43:32.059Z,13.00
2022-10-03T16:46:16.358Z,12.90
2022-10-03T16:49:02.974Z,12.90
2022-10-03T16:51:46.435Z,12.90
2022-10-03T16:54:18.895Z,12.80
2022-10-03T16:56:54.871Z,12.70
2022-10-03T16:59:23.860Z,12.70
2022-10-03T17:01:57.388Z,12.60
2022-10-03T17:04:30.358Z,12.50
2022-10-03T17:07:06.398Z,12.50
2022-10-03T17:09:48.457Z,12.40
2022-10-03T17:12:57.058Z,12.40
2022-10-03T17:15:30.933Z,12.30
2022-10-03T17:18:26.819Z,12.20
2022-10-03T17:21:08.238Z,12.10
2022-10-03T17:23:49.266Z,12.00
2022-10-03T17:26:39.309Z,11.90
2022-10-03T17:29:21.144Z,11.80
2022-10-03T17:32:02.361Z,11.70
2022-10-03T17:35:12.524Z,11.70
2022-10-03T17:37:51.557Z,11.60
2022-10-03T17:40:36.508Z,11.60
2022-10-03T17:43:12.938Z,11.70
2022-10-03T17:45:54.226Z,11.60
2022-10-03T17:48:43.407Z,11.60
2022-10-03T17:51:35.054Z,11.60
2022-10-03T17:54:06.070Z,11.60
2022-10-03T17:56:34.927Z,11.60
2022-10-03T17:59:12.825Z,11.60
2022-10-03T18:01:51.296Z,11.60
2022-10-03T18:04:39.050Z,11.50
2022-10-03T18:07:25.027Z,11.40
2022-10-03T18:09:54.653Z,11.40
2022-10-03T18:12:35.008Z,11.30
2022-10-03T18:15:27.752Z,11.30
2022-10-03T18:18:19.191Z,11.20
2022-10-03T18:20:58.700Z,11.20
2022-10-03T18:23:56.390Z,11.10
2022-10-03T18:26:36.938Z,11.10
2022-10-03T18:29:19.094Z,11.00
2022-10-03T18:31:57.407Z,11.00
2022-10-03T18:34:34.499Z,10.90
2022-10-03T18:37:16.732Z,10.90
2022-10-03T18:39:44.777Z,10.90
2022-10-03T18:42:12.052Z,10.80
2022-10-03T18:44:44.944Z,10.80
2022-10-03T18:47:20.543Z,10.70
2022-10-03T18:50:19.271Z,10.60
2022-10-03T18:52:53.543Z,10.50
2022-10-03T18:55:37.694Z,10.40
2022-10-03T18:58:05.854Z,10.30
2022-10-03T19:00:42.725Z,10.30
2022-10-03T19:03:16.956Z,10.30
2022-10-03T19:06:03.332Z,10.30
2022-10-03T19:08:43.831Z,10.20
2022-10-03T19:11:14.103Z,10.10
2022-10-03T19:13:48.457Z,10.10
2022-10-03T19:16:35.399Z,10.00
2022-10-03T19:19:05.932Z,10.00
2022-10-03T19:21:41.213Z,9.90
2022-10-03T19:24:34.435Z,9.80
2022-10-03T19:27:14.686Z,9.80
2022-10-03T19:29:47.959Z,9.70
2022-10-03T19:32:31.272Z,9.60
2022-10-03T19:35:04.919Z,9.60
2022-10-03T19:37:45.294Z,9.50
2022-10-03T19:40:34.711Z,9.50
2022-10-03T19:43:24.159Z,9.40
2022-10-03T19:46:01.067Z,9.40
2022-10-03T19:48:32.274Z,9.30
2022-10-03T19:51:10.411Z,9.30
2022-10-03T19:53:42.632Z,9.20
2022-10-03T19:56:15.359Z,9.20
2022-10-03T19:58:46.252Z,9.20
2022-10-03T20:01:13.703Z,9.20
2022-10-03T20:03:52.395Z,9.10
2022-10-03T20:06:22.609Z,9.00
2022-10-03T20:09:02.441Z,9.00
2022-10-03T20:11:49.313Z,8.90
2022-10-03T20:14:27.053Z,8.90
2022-10-03T20:17:04.494Z,8.80
2022-10-03T20:19:56.572Z,8.80
2022-10-03T20:22:33.566Z,8.70
2022-10-03T20:25:01.015Z,8.70
2022-10-03T20:27:27.722Z,8.70
2022-10-03T20:30:23.433Z,8.60
2022-10-03T20:32:51.722Z,8.70
2022-10-03T20:35:23.659Z,8.70
2022-10-03T20:37:50.259Z,8.60
2022-10-03T20:40:42.253Z,8.60
2022-10-03T20:43:41.339Z,8.60
2022-10-03T20:46:26.287Z,8.50
2022-10-03T20:49:11.504Z,8.50
2022-10-03T20:51:51.837Z,8.50
2022-10-03T20:54:21.015Z,8.40
2022-10-03T20:57:14.512Z,8.40
2022-10-03T21:00:11.453Z,8.30
2022-10-03T21:02:52.948Z,8.30
2022-10-03T21:05:36.263Z,8.20
2022-10-03T21:08:20.028Z,8.20
2022-10-03T21:10:58.401Z,8.10
2022-10-03T21:13:33.033Z,8.10
2022-10-03T21:16:02.817Z,8.10
2022-10-03T21:18:40.082Z,8.00
2022-10-03T21:21:18.910Z,7.90
2022-10-03T21:23:52.241Z,7.90
2022-10-03T21:26:25.875Z,7.80
2022-10-03T21:29:24.492Z,7.80
2022-10-03T21:32:20.235Z,7.80
2022-10-03T21:35:02.435Z,7.80
2022-10-03T21:37:42.559Z,7.80
2022-10-03T21:40:25.048Z,7.70
2022-10-03T21:43:20.491Z,7.70
2022-10-03T21:46:01.601Z,7.60
2022-10-03T21:48:41.819Z,7.60
2022-10-03T21:51:19.605Z,7.50
2022-10-03T21:54:03.752Z,7.50
2022-10-03T21:56:46.267Z,7.50
2022-10-03T21:59:41.315Z,7.40
2022-10-03T22:02:20.953Z,7.40
2022-10-03T22:04:49.822Z,7.40
2022-10-03T22:07:38.113Z,7.40
2022-10-03T22:10:21.841Z,7.30
2022-10-03T22:12:52.428Z,7.30
2022-10-03T22:15:27.964Z,7.30
2022-10-03T22:18:05.275Z,7.20
2022-10-03T22:20:33.824Z,7.20
2022-10-03T22:23:09.358Z,7.20
2022-10-03T22:25:54.348Z,7.20
2022-10-03T22:28:45.738Z,7.10
2022-10-03T22:31:34.416Z,7.00
2022-10-03T22:34:28.859Z,7.00
2022-10-03T22:36:55.965Z,7.00
2022-10-03T22:39:23.016Z,7.00
2022-10-03T22:41:54.386Z,6.90
2022-10-03T22:44:25.541Z,6.90
2022-10-03T22:46:56.494Z,6.90
2022-10-03T22:49:33.105Z,6.90
2022-10-03T22:52:03.653Z,6.80
2022-10-03T22:54:35.136Z,6.80
2022-10-03T22:57:07.121Z,6.70
2022-10-03T22:59:42.333Z,6.70
2022-10-03T23:02:10.063Z,6.70
2022-10-03T23:04:57.378Z,6.70
2022-10-03T23:08:18.060Z,6.60
2022-10-03T23:11:01.571Z,6.60
2022-10-03T23:13:43.647Z,6.60
2022-10-03T23:16:47.436Z,6.60
2022-10-03T23:19:38.639Z,6.60
2022-10-03T23:22:12.393Z,6.60
2022-10-03T23:24:44.516Z,6.60
2022-10-03T23:27:29.445Z,6.50
2022-10-03T23:30:16.934Z,6.50
2022-10-03T23:32:46.578Z,6.50
2022-10-03T23:35:30.763Z,6.50
2022-10-03T23:38:01.158Z,6.50
2022-10-03T23:40:29.525Z,6.40
2022-10-03T23:43:37.076Z,6.40
2022-10-03T23:46:10.404Z,6.40
2022-10-03T23:48:46.420Z,6.30
2022-10-03T23:51:17.799Z,6.30
2022-10-03T23:53:52.817Z,6.20
2022-10-03T23:56:22.462Z,6.20
2022-10-03T23:59:14.460Z,6.10
